Time;durP1;ratioP1;P1;durP2;ratioP2;P2;SDS_P1;SDS_P2;PMS_P1;PMS_P2;Temp;Humidity;BMP_temperature;BMP_pressure;BME280_temperature;BME280_humidity;BME280_pressure;Samples;Min_cycle;Max_cycle;Signal;HPM_P1;HPM_P2
2023/07/26 00:01:38;;;;;;;1.10;1.10;;;;;;;24.25;80.81;96021.50;5002559;28;20254;-62
2023/07/26 00:04:07;;;;;;;1.20;1.20;;;;;;;24.31;81.20;96028.06;5003615;28;20077;-63
2023/07/26 00:06:34;;;;;;;1.08;1.08;;;;;;;23.84;81.68;95957.38;5006641;28;20053;-63
2023/07/26 00:09:00;;;;;;;1.10;1.10;;;;;;;24.18;81.83;96013.41;5007413;28;20064;-62
2023/07/26 00:11:29;;;;;;;1.00;1.00;;;;;;;23.60;81.96;95925.53;5007682;28;20049;-62
2023/07/26 00:13:55;;;;;;;1.13;1.13;;;;;;;24.30;81.26;96023.69;5006872;28;20513;-62
2023/07/26 00:16:22;;;;;;;1.10;1.10;;;;;;;24.15;81.94;96011.56;5006977;28;20060;-62
2023/07/26 00:18:49;;;;;;;1.00;1.00;;;;;;;24.15;82.41;96005.91;5006567;28;20045;-63
2023/07/26 00:21:16;;;;;;;1.00;1.00;;;;;;;23.92;83.36;95987.66;5007084;28;20054;-63
2023/07/26 00:23:43;;;;;;;1.10;1.10;;;;;;;24.09;83.31;95996.50;5007319;28;20057;-62
2023/07/26 00:26:09;;;;;;;1.05;1.05;;;;;;;23.37;84.56;95889.56;5006988;28;20060;-62
2023/07/26 00:28:36;;;;;;;0.98;0.98;;;;;;;23.79;85.62;95972.19;5007366;28;20063;-62
2023/07/26 00:31:03;;;;;;;1.10;1.10;;;;;;;23.81;86.45;95980.97;5006697;28;20144;-63
2023/07/26 00:33:29;;;;;;;1.10;1.10;;;;;;;23.63;86.30;95941.53;5006919;28;20509;-63
2023/07/26 00:35:56;;;;;;;0.90;0.90;;;;;;;23.66;85.62;95932.09;5006586;28;20060;-64
2023/07/26 00:38:23;;;;;;;1.00;1.00;;;;;;;23.76;85.78;95970.31;5006928;28;20056;-63
2023/07/26 00:40:49;;;;;;;1.00;1.00;;;;;;;23.59;86.04;95963.53;5006375;28;20057;-62
2023/07/26 00:43:16;;;;;;;1.05;1.05;;;;;;;23.68;86.27;95989.72;5007070;28;20053;-63
2023/07/26 00:45:43;;;;;;;1.00;1.00;;;;;;;23.41;87.40;95952.38;5006280;28;20651;-62
2023/07/26 00:48:11;;;;;;;1.10;1.10;;;;;;;23.13;85.72;95894.41;5007003;28;20061;-63
2023/07/26 00:50:40;;;;;;;1.08;1.08;;;;;;;23.29;85.99;95950.53;5004768;28;20488;-63
2023/07/26 00:53:07;;;;;;;1.00;1.00;;;;;;;23.44;86.61;95988.16;5006659;28;20054;-62
2023/07/26 00:55:35;;;;;;;1.08;1.08;;;;;;;23.19;86.27;95963.16;5005913;28;20061;-62
2023/07/26 00:58:03;;;;;;;1.00;1.00;;;;;;;23.27;86.83;95975.66;5006278;28;20046;-64
2023/07/26 01:00:30;;;;;;;1.00;1.00;;;;;;;22.94;87.62;95940.97;5005862;28;20061;-63
2023/07/26 01:02:56;;;;;;;1.10;1.10;;;;;;;22.92;87.07;95918.09;5006289;28;20057;-63
2023/07/26 01:05:31;;;;;;;1.00;1.00;;;;;;;23.23;87.34;95977.88;5005962;28;20133;-63
2023/07/26 01:08:00;;;;;;;1.00;1.00;;;;;;;23.31;87.19;95970.63;5006029;28;20049;-63
2023/07/26 01:10:59;;;;;;;1.10;1.10;;;;;;;23.39;86.46;95954.88;5006193;28;20050;-62
2023/07/26 01:13:41;;;;;;;1.00;1.00;;;;;;;23.36;87.27;95950.19;5014846;28;20053;-62
2023/07/26 01:16:08;;;;;;;1.00;1.00;;;;;;;23.41;88.49;95958.03;5005200;28;20058;-63
2023/07/26 01:18:36;;;;;;;1.00;1.00;;;;;;;23.34;88.40;95945.03;5005960;28;20523;-63
2023/07/26 01:21:03;;;;;;;1.00;1.00;;;;;;;23.39;89.77;95960.53;5005664;28;20062;-63
2023/07/26 01:23:30;;;;;;;1.00;1.00;;;;;;;23.47;89.00;95956.09;5006059;28;20512;-64
2023/07/26 01:25:57;;;;;;;1.00;1.00;;;;;;;23.42;89.23;95973.72;5005866;28;20175;-63
2023/07/26 01:28:23;;;;;;;0.90;0.90;;;;;;;23.36;89.66;95967.16;5005939;28;20077;-64
2023/07/26 01:30:51;;;;;;;1.00;1.00;;;;;;;23.42;89.56;95965.22;5005614;28;20065;-63
2023/07/26 01:33:20;;;;;;;0.90;0.90;;;;;;;23.42;88.68;95976.53;5005764;28;20080;-62
2023/07/26 01:35:47;;;;;;;0.90;0.90;;;;;;;23.36;88.42;95965.09;5003740;28;20112;-62
2023/07/26 01:38:15;;;;;;;1.10;1.10;;;;;;;23.36;88.78;95972.81;5006236;28;20108;-63
2023/07/26 01:40:44;;;;;;;1.08;1.08;;;;;;;23.23;89.88;95963.75;5005328;28;20049;-62
2023/07/26 01:43:11;;;;;;;0.90;0.90;;;;;;;23.16;88.89;95933.00;5006009;28;20123;-62
2023/07/26 01:45:38;;;;;;;1.10;1.10;;;;;;;23.44;88.84;95957.81;5005854;28;20456;-63
2023/07/26 01:48:05;;;;;;;1.00;1.00;;;;;;;23.20;89.11;95919.50;5006037;28;20077;-63
2023/07/26 01:50:31;;;;;;;0.90;0.90;;;;;;;23.28;89.02;95937.69;5005165;28;20053;-63
2023/07/26 01:52:58;;;;;;;0.95;0.95;;;;;;;23.36;89.79;95955.84;5005646;28;20527;-62
2023/07/26 01:55:24;;;;;;;1.00;1.00;;;;;;;23.13;90.40;95936.78;5004871;28;20052;-63
2023/07/26 01:57:51;;;;;;;1.00;1.00;;;;;;;22.86;90.79;95883.28;5005636;28;20049;-62
2023/07/26 02:00:18;;;;;;;1.10;1.10;;;;;;;23.33;89.79;95951.94;5004758;28;20348;-62
2023/07/26 02:02:44;;;;;;;1.10;1.10;;;;;;;22.07;90.25;95772.59;4989331;28;20050;-64
2023/07/26 02:05:11;;;;;;;1.10;1.10;;;;;;;23.16;90.99;95949.94;5005252;28;20068;-63
2023/07/26 02:07:38;;;;;;;0.93;0.93;;;;;;;23.26;90.80;95962.81;5005442;28;20053;-62
2023/07/26 02:10:05;;;;;;;0.95;0.95;;;;;;;23.08;91.00;95945.94;5004798;28;20061;-62
2023/07/26 02:12:32;;;;;;;1.00;1.00;;;;;;;22.79;91.38;95911.88;5005217;28;20050;-62
2023/07/26 02:14:59;;;;;;;1.00;1.00;;;;;;;22.89;92.51;95921.88;5004990;28;20132;-63
2023/07/26 02:17:26;;;;;;;0.90;0.90;;;;;;;23.16;91.22;95949.94;5004640;28;20653;-63
2023/07/26 02:19:52;;;;;;;0.90;0.90;;;;;;;23.20;91.43;95959.84;5004972;28;20525;-63
2023/07/26 02:22:19;;;;;;;0.90;0.90;;;;;;;23.12;91.17;95946.53;5003500;28;20053;-63
2023/07/26 02:24:46;;;;;;;1.00;1.00;;;;;;;23.04;91.34;95943.28;5004980;28;20053;-63
2023/07/26 02:27:12;;;;;;;1.05;1.05;;;;;;;22.93;91.04;95911.16;5004547;28;20054;-62
2023/07/26 02:29:39;;;;;;;1.10;1.10;;;;;;;22.76;91.28;95891.03;5004716;28;20050;-63
2023/07/26 02:32:06;;;;;;;1.00;1.00;;;;;;;22.73;92.17;95914.53;5004776;28;20057;-62
2023/07/26 02:34:33;;;;;;;1.00;1.00;;;;;;;23.01;92.29;95960.41;5004468;28;20540;-63
2023/07/26 02:37:00;;;;;;;0.90;0.90;;;;;;;22.97;90.97;95959.81;5004393;28;20065;-63
2023/07/26 02:39:27;;;;;;;1.00;1.00;;;;;;;22.27;90.46;95871.56;5004849;28;20096;-62
2023/07/26 02:41:53;;;;;;;1.02;1.02;;;;;;;22.55;89.91;95908.19;5004893;28;20056;-62
2023/07/26 02:44:20;;;;;;;1.00;1.00;;;;;;;22.54;91.21;95938.47;5002981;28;20075;-63
2023/07/26 02:46:47;;;;;;;1.00;1.00;;;;;;;22.67;90.97;95943.94;5002915;28;20046;-62
2023/07/26 02:49:13;;;;;;;1.00;1.00;;;;;;;22.30;90.49;95870.63;5004318;28;20053;-63
2023/07/26 02:51:40;;;;;;;0.95;0.95;;;;;;;22.17;90.59;95855.94;5004126;28;20057;-62
2023/07/26 02:54:07;;;;;;;0.90;0.90;;;;;;;22.71;92.39;95938.88;5004671;28;20042;-63
2023/07/26 02:56:33;;;;;;;0.93;0.93;;;;;;;22.73;92.62;95930.72;5004274;28;20324;-63
2023/07/26 02:59:00;;;;;;;0.90;0.90;;;;;;;22.57;92.63;95914.16;5004555;28;20072;-62
2023/07/26 03:01:27;;;;;;;0.90;0.90;;;;;;;22.55;92.86;95913.84;5004391;28;20050;-62
2023/07/26 03:03:54;;;;;;;1.10;1.10;;;;;;;22.60;92.37;95904.72;5004472;28;20456;-62
2023/07/26 03:06:20;;;;;;;0.90;0.90;;;;;;;22.17;93.31;95855.94;5002431;28;20631;-62
2023/07/26 03:08:47;;;;;;;0.90;0.90;;;;;;;22.79;92.90;95931.63;5003877;28;20046;-62
2023/07/26 03:11:14;;;;;;;1.08;1.08;;;;;;;22.33;93.00;95857.63;5004147;28;20147;-63
2023/07/26 03:13:41;;;;;;;1.00;1.00;;;;;;;22.61;93.29;95895.78;5003796;28;20058;-62
2023/07/26 03:16:07;;;;;;;0.98;0.98;;;;;;;21.37;92.69;95707.50;5002589;28;20068;-63
2023/07/26 03:18:34;;;;;;;0.90;0.90;;;;;;;22.45;91.94;95865.88;5004060;28;20053;-63
2023/07/26 03:21:01;;;;;;;1.00;1.00;;;;;;;22.81;92.44;95931.94;5004060;28;20056;-63
2023/07/26 03:23:27;;;;;;;1.00;1.00;;;;;;;22.62;92.28;95899.41;5002870;28;20064;-62
2023/07/26 03:25:55;;;;;;;1.00;1.00;;;;;;;22.78;91.80;95907.50;5004186;28;20050;-63
2023/07/26 03:28:21;;;;;;;0.90;0.90;;;;;;;23.02;91.39;95942.19;5004183;28;20053;-62
2023/07/26 03:30:48;;;;;;;1.00;1.00;;;;;;;23.06;91.38;95946.41;5004106;28;20046;-63
2023/07/26 03:33:14;;;;;;;1.10;1.10;;;;;;;23.05;91.02;95927.09;5003626;28;20056;-63
2023/07/26 03:35:41;;;;;;;0.95;0.95;;;;;;;22.94;90.98;95896.56;5003957;28;20463;-63
2023/07/26 03:38:08;;;;;;;0.98;0.98;;;;;;;23.25;90.86;95941.44;5003701;28;20464;-63
2023/07/26 03:40:35;;;;;;;1.00;1.00;;;;;;;23.17;89.93;95911.97;5005929;28;20714;-62
2023/07/26 03:43:01;;;;;;;0.90;0.90;;;;;;;23.19;89.13;95924.34;5007516;28;20432;-62
2023/07/26 03:45:28;;;;;;;1.00;1.00;;;;;;;23.41;88.44;95953.13;5007887;28;20141;-64
2023/07/26 03:47:55;;;;;;;1.00;1.00;;;;;;;23.39;88.74;95935.09;5007415;28;20054;-62
2023/07/26 03:50:22;;;;;;;1.10;1.10;;;;;;;23.52;87.83;95935.66;5006449;28;20050;-62
2023/07/26 03:52:48;;;;;;;1.08;1.08;;;;;;;22.89;86.55;95837.16;5007425;28;20054;-63
2023/07/26 03:55:15;;;;;;;1.10;1.10;;;;;;;23.42;85.82;95942.63;5007326;28;20052;-62
2023/07/26 03:57:42;;;;;;;1.10;1.10;;;;;;;23.33;84.97;95917.25;5006999;28;20432;-63
2023/07/26 04:00:09;;;;;;;1.10;1.10;;;;;;;23.56;84.25;95939.06;5007275;28;20069;-62
2023/07/26 04:02:36;;;;;;;0.88;0.88;;;;;;;23.50;83.89;95909.91;5007357;28;20108;-63
2023/07/26 04:05:04;;;;;;;1.15;1.15;;;;;;;23.63;83.61;95918.91;5007506;28;20499;-62
2023/07/26 04:07:31;;;;;;;1.00;1.00;;;;;;;23.78;83.41;95920.50;5007570;28;20064;-62
2023/07/26 04:10:00;;;;;;;1.20;1.20;;;;;;;23.72;83.21;95899.03;5007829;28;20128;-62
2023/07/26 04:12:27;;;;;;;1.10;1.10;;;;;;;24.08;82.06;95918.53;5007444;28;20471;-63
2023/07/26 04:14:54;;;;;;;1.00;1.00;;;;;;;23.65;84.00;95903.00;5005592;28;20049;-62
2023/07/26 04:17:20;;;;;;;1.13;1.13;;;;;;;24.01;84.26;95932.28;5007091;28;20525;-63
2023/07/26 04:19:47;;;;;;;1.13;1.13;;;;;;;23.78;82.99;95874.47;5007354;28;20509;-63
2023/07/26 04:22:14;;;;;;;1.10;1.10;;;;;;;22.73;81.99;95710.50;5007686;28;20052;-63
2023/07/26 04:24:45;;;;;;;1.00;1.00;;;;;;;24.09;82.41;95967.44;5005606;28;20080;-63
2023/07/26 04:27:12;;;;;;;1.30;1.30;;;;;;;24.54;81.88;95924.50;5005294;28;20045;-62
2023/07/26 04:29:42;;;;;;;1.20;1.20;;;;;;;24.83;80.54;95918.84;5006874;28;20050;-63
2023/07/26 04:32:09;;;;;;;1.20;1.20;;;;;;;24.99;80.15;95927.59;5007227;28;20078;-63
2023/07/26 04:34:36;;;;;;;1.27;1.27;;;;;;;25.08;80.04;95924.66;5006669;28;20226;-63
2023/07/26 04:37:03;;;;;;;1.10;1.10;;;;;;;25.19;79.86;95921.97;5006927;28;20053;-63
2023/07/26 04:39:29;;;;;;;1.40;1.40;;;;;;;24.66;79.38;95830.75;5006340;28;20056;-64
2023/07/26 04:41:56;;;;;;;1.20;1.20;;;;;;;25.21;79.29;95915.81;5006344;28;20054;-63
2023/07/26 04:44:23;;;;;;;1.27;1.27;;;;;;;25.40;79.11;95913.53;4994133;28;20050;-64
2023/07/26 04:46:49;;;;;;;1.27;1.27;;;;;;;25.47;78.45;95888.34;4987479;28;20101;-63
2023/07/26 04:49:16;;;;;;;1.20;1.20;;;;;;;25.70;77.86;95907.22;5002180;28;20515;-63
2023/07/26 04:51:42;;;;;;;1.20;1.20;;;;;;;25.64;78.68;95911.25;4985856;28;20517;-63
2023/07/26 04:54:09;;;;;;;1.30;1.30;;;;;;;25.52;78.90;95872.66;4987370;28;20109;-63
2023/07/26 04:56:36;;;;;;;1.20;1.20;;;;;;;25.58;78.38;95893.38;5003873;28;20069;-64
2023/07/26 04:59:02;;;;;;;1.30;1.30;;;;;;;25.78;77.76;95901.88;5006656;28;20049;-63
2023/07/26 05:01:29;;;;;;;1.30;1.30;;;;;;;25.74;77.28;95884.28;5006722;28;20058;-63
2023/07/26 05:03:56;;;;;;;1.50;1.50;;;;;;;25.72;76.13;95838.63;5006251;28;20104;-63
2023/07/26 05:06:24;;;;;;;1.33;1.33;;;;;;;26.25;75.88;95907.06;5006556;28;20069;-62
2023/07/26 05:08:51;;;;;;;1.20;1.20;;;;;;;26.29;75.75;95908.41;5006410;28;20090;-63
2023/07/26 05:11:22;;;;;;;1.50;1.50;;;;;;;26.35;75.88;95899.97;5006462;28;21390;-62
2023/07/26 05:13:49;;;;;;;1.30;1.30;;;;;;;26.37;75.24;95857.63;5004563;28;20509;-62
2023/07/26 05:16:16;;;;;;;1.60;1.60;;;;;;;26.53;73.91;95848.47;5006166;28;20077;-63
2023/07/26 05:18:43;;;;;;;1.40;1.40;;;;;;;27.00;73.16;95896.13;5006045;28;20054;-63
2023/07/26 05:21:10;;;;;;;1.42;1.42;;;;;;;27.16;71.99;95889.75;5004873;28;20520;-64
2023/07/26 05:23:37;;;;;;;1.40;1.40;;;;;;;27.27;71.55;95891.94;5005833;28;20376;-63
2023/07/26 05:26:03;;;;;;;1.48;1.48;;;;;;;27.51;70.03;95907.31;5005733;28;20054;-64
2023/07/26 05:28:30;;;;;;;1.70;1.70;;;;;;;27.53;68.96;95906.81;5006334;28;20432;-62
2023/07/26 05:30:57;;;;;;;1.60;1.60;;;;;;;27.39;68.97;95867.94;5000245;28;20042;-62
2023/07/26 05:33:25;;;;;;;1.60;1.60;;;;;;;27.73;68.67;95893.19;4997615;28;20056;-63
2023/07/26 05:35:52;;;;;;;1.65;1.65;;;;;;;27.83;68.63;95905.94;5002436;28;20050;-60
2023/07/26 05:38:19;;;;;;;1.60;1.60;;;;;;;27.86;68.25;95896.34;5005318;28;20056;-59
2023/07/26 05:40:46;;;;;;;1.75;1.75;;;;;;;27.71;67.92;95861.63;4997140;28;20141;-64
2023/07/26 05:43:13;;;;;;;1.52;1.52;;;;;;;27.61;68.08;95834.69;4994789;28;20433;-64
2023/07/26 05:45:41;;;;;;;1.48;1.48;;;;;;;28.31;67.21;95902.19;5002980;28;20402;-61
2023/07/26 05:48:08;;;;;;;1.58;1.58;;;;;;;28.21;65.71;95903.72;5000474;28;20484;-65
2023/07/26 05:50:35;;;;;;;1.50;1.50;;;;;;;26.94;65.46;95721.91;5002316;28;20497;-68
2023/07/26 05:53:02;;;;;;;1.65;1.65;;;;;;;28.43;63.20;95898.06;4996201;28;20076;-64
2023/07/26 05:55:29;;;;;;;1.70;1.70;;;;;;;28.54;62.61;95883.88;4984510;28;20057;-64
2023/07/26 05:57:55;;;;;;;1.77;1.77;;;;;;;28.89;62.62;95927.69;4999811;28;20068;-62
2023/07/26 06:00:22;;;;;;;1.63;1.63;;;;;;;28.70;61.15;95866.00;4983731;28;20174;-64
2023/07/26 06:02:48;;;;;;;1.83;1.83;;;;;;;28.92;61.05;95888.78;4985915;28;20065;-64
2023/07/26 06:05:15;;;;;;;1.75;1.75;;;;;;;28.97;60.55;95890.88;4985352;28;20058;-64
2023/07/26 06:07:42;;;;;;;1.88;1.88;;;;;;;27.89;60.11;95735.94;5011902;28;20560;-67
2023/07/26 06:10:09;;;;;;;1.92;1.92;;;;;;;29.22;60.31;95906.94;5003032;28;20042;-64
2023/07/26 06:12:35;;;;;;;1.90;1.90;;;;;;;29.33;59.29;95873.47;5000775;28;20073;-67
2023/07/26 06:15:02;;;;;;;1.75;1.75;;;;;;;28.99;57.67;95797.78;4999403;28;20058;-66
2023/07/26 06:17:29;;;;;;;1.70;1.70;;;;;;;29.67;57.75;95890.50;4986236;28;20152;-66
2023/07/26 06:19:56;;;;;;;1.73;1.73;;;;;;;29.75;58.19;95880.84;4984272;28;20042;-63
2023/07/26 06:22:23;;;;;;;1.85;1.85;;;;;;;30.06;56.70;95885.41;4985357;28;20057;-63
2023/07/26 06:24:49;;;;;;;2.00;2.00;;;;;;;30.23;56.16;95878.31;4985281;28;20054;-64
2023/07/26 06:27:25;;;;;;;2.03;2.03;;;;;;;29.91;56.23;95808.59;4984710;28;20046;-63
2023/07/26 06:29:51;;;;;;;1.77;1.77;;;;;;;29.89;55.83;95776.97;4984677;28;20054;-63
2023/07/26 06:32:18;;;;;;;2.00;2.00;;;;;;;30.20;55.34;95825.06;4999270;28;20045;-63
2023/07/26 06:34:45;;;;;;;2.03;2.03;;;;;;;30.56;55.96;95880.16;4992585;28;20128;-59
2023/07/26 06:37:12;;;;;;;1.85;1.85;;;;;;;29.90;55.80;95817.72;4990719;28;20050;-62
2023/07/26 06:39:38;;;;;;;2.08;2.08;;;;;;;29.57;57.77;95847.19;4987273;28;20046;-66
2023/07/26 06:42:05;;;;;;;1.63;1.63;;;;;;;29.79;57.72;95847.09;4999598;28;20060;-62
2023/07/26 06:44:32;;;;;;;2.00;2.00;;;;;;;29.95;56.56;95834.81;4988934;28;20061;-61
2023/07/26 06:46:59;;;;;;;1.92;1.92;;;;;;;30.02;56.79;95859.97;4982805;28;20050;-64
2023/07/26 06:49:25;;;;;;;2.00;2.00;;;;;;;30.43;54.96;95875.06;4982016;28;20229;-63
2023/07/26 06:51:52;;;;;;;1.77;1.77;;;;;;;30.54;52.98;95877.84;4995987;28;20046;-66
2023/07/26 06:54:19;;;;;;;1.95;1.95;;;;;;;30.42;53.31;95869.88;5001240;28;20054;-66
2023/07/26 06:56:47;;;;;;;1.95;1.95;;;;;;;30.54;53.55;95872.13;4990499;28;20058;-69
2023/07/26 06:59:15;;;;;;;2.10;2.10;;;;;;;30.65;52.40;95854.88;4983760;28;20238;-65
2023/07/26 07:01:42;;;;;;;1.85;1.85;;;;;;;30.80;52.76;95855.31;4984173;28;20054;-68
2023/07/26 07:04:09;;;;;;;1.83;1.83;;;;;;;30.67;52.89;95811.44;4985302;28;20058;-65
2023/07/26 07:06:40;;;;;;;2.10;2.10;;;;;;;31.01;51.96;95834.84;4999740;28;20053;-65
2023/07/26 07:09:07;;;;;;;2.13;2.13;;;;;;;31.05;51.87;95807.47;5002703;28;20173;-68
2023/07/26 07:11:34;;;;;;;2.00;2.00;;;;;;;31.16;52.92;95829.50;5002594;28;20495;-66
2023/07/26 07:14:01;;;;;;;1.70;1.70;;;;;;;31.03;51.74;95775.00;5002085;28;20413;-69
2023/07/26 07:16:29;;;;;;;2.08;2.08;;;;;;;31.08;52.14;95791.34;4989226;28;20054;-64
2023/07/26 07:18:55;;;;;;;2.10;2.10;;;;;;;29.55;52.13;95581.47;4984664;28;20171;-66
2023/07/26 07:21:22;;;;;;;2.10;2.10;;;;;;;30.88;52.28;95758.25;4983636;28;20058;-67
2023/07/26 07:23:51;;;;;;;1.98;1.98;;;;;;;31.57;51.71;95821.50;4984301;28;20148;-69
2023/07/26 07:26:19;;;;;;;1.98;1.98;;;;;;;31.88;51.37;95826.59;4999175;28;20058;-65
2023/07/26 07:28:45;;;;;;;2.15;2.15;;;;;;;32.13;50.82;95825.97;4984124;28;20055;-66
2023/07/26 07:34:48;;;;;;;2.10;2.10;;;;;;;32.61;48.85;95830.75;4985430;28;20050;-70
2023/07/26 07:37:16;;;;;;;2.08;2.08;;;;;;;32.17;48.61;95739.66;4981976;28;20534;-73
2023/07/26 07:39:43;;;;;;;2.20;2.20;;;;;;;32.56;47.16;95773.47;4998167;28;20062;-68
2023/07/26 07:42:10;;;;;;;2.28;2.28;;;;;;;31.68;47.27;95647.41;5001400;28;20054;-71
2023/07/26 07:44:37;;;;;;;2.15;2.15;;;;;;;32.56;48.22;95753.38;5013626;28;20191;-70
2023/07/26 07:47:03;;;;;;;2.15;2.15;;;;;;;32.85;49.36;95806.88;4986769;28;20050;-65
2023/07/26 07:49:33;;;;;;;2.22;2.22;;;;;;;32.00;50.62;95731.34;4998345;28;20041;-68
2023/07/26 07:52:00;;;;;;;2.40;2.38;;;;;;;32.60;50.40;95806.25;5004625;28;20060;-65
2023/07/26 07:54:27;;;;;;;2.17;2.17;;;;;;;32.64;49.40;95766.56;5003090;28;20112;-68
2023/07/26 07:56:53;;;;;;;2.05;2.05;;;;;;;32.54;49.56;95715.88;5003484;28;20057;-64
2023/07/26 07:59:20;;;;;;;2.05;2.05;;;;;;;33.27;48.64;95763.56;5002070;28;20078;-66
2023/07/26 08:01:47;;;;;;;1.88;1.88;;;;;;;33.08;46.75;95722.72;4993774;28;20145;-70
2023/07/26 08:04:14;;;;;;;1.77;1.77;;;;;;;33.59;46.37;95780.69;4988534;28;20516;-64
2023/07/26 08:06:40;;;;;;;2.20;2.20;;;;;;;32.31;45.50;95543.47;4996438;28;20069;-70
2023/07/26 08:09:07;;;;;;;1.98;1.98;;;;;;;33.00;45.05;95632.84;4997552;28;20597;-70
2023/07/26 08:11:34;;;;;;;2.30;2.30;;;;;;;32.78;45.75;95590.25;5001263;28;20441;-69
2023/07/26 08:14:01;;;;;;;1.70;1.70;;;;;;;34.20;45.25;95762.09;4983411;28;20818;-67
2023/07/26 08:16:27;;;;;;;2.20;2.20;;;;;;;34.48;44.52;95773.72;4983703;28;20051;-64
2023/07/26 08:18:54;;;;;;;2.20;2.20;;;;;;;34.17;45.12;95761.13;4991428;28;20053;-65
2023/07/26 08:21:21;;;;;;;2.08;2.08;;;;;;;34.11;45.22;95717.38;4990004;28;20050;-64
2023/07/26 08:23:47;;;;;;;2.22;2.22;;;;;;;34.51;44.57;95761.88;4985068;28;20082;-65
2023/07/26 08:26:15;;;;;;;2.00;2.00;;;;;;;34.00;44.79;95734.09;4997490;28;20504;-63
2023/07/26 08:28:42;;;;;;;2.20;2.20;;;;;;;34.26;44.73;95762.75;4987158;28;20056;-63
2023/07/26 08:31:09;;;;;;;1.83;1.83;;;;;;;34.14;45.07;95747.09;4985124;28;20130;-65
2023/07/26 08:33:36;;;;;;;1.88;1.88;;;;;;;33.24;45.52;95726.56;4986721;28;20429;-63
2023/07/26 08:36:03;;;;;;;2.17;2.17;;;;;;;33.78;44.52;95747.59;5001538;28;20059;-65
2023/07/26 08:38:32;;;;;;;2.00;2.00;;;;;;;33.66;44.75;95740.56;4985072;28;20050;-66
2023/07/26 08:41:00;;;;;;;2.08;2.08;;;;;;;33.81;44.15;95762.19;4996792;28;20061;-65
2023/07/26 08:43:31;;;;;;;1.90;1.90;;;;;;;32.56;46.12;95762.78;5004969;28;20362;-65
2023/07/26 08:46:00;;;;;;;2.22;2.22;;;;;;;32.68;45.70;95718.22;5005407;28;20046;-65
2023/07/26 08:48:27;;;;;;;2.03;2.03;;;;;;;33.35;44.99;95750.09;5005998;28;20046;-63
2023/07/26 08:50:55;;;;;;;2.00;2.00;;;;;;;33.24;44.78;95747.44;5006218;28;20493;-63
2023/07/26 08:53:22;;;;;;;1.95;1.95;;;;;;;33.45;45.02;95718.84;4988517;28;20088;-64
2023/07/26 08:55:49;;;;;;;2.17;2.17;;;;;;;33.59;44.13;95695.28;4987883;28;20050;-63
2023/07/26 08:58:16;;;;;;;2.10;2.10;;;;;;;33.64;43.62;95740.34;5006241;28;20070;-62
2023/07/26 09:00:43;;;;;;;2.10;2.10;;;;;;;33.93;43.01;95700.28;5006051;28;20187;-65
2023/07/26 09:03:10;;;;;;;1.70;1.70;;;;;;;34.04;43.25;95735.28;5005938;28;20057;-63
2023/07/26 09:05:38;;;;;;;2.30;2.30;;;;;;;34.30;43.13;95694.94;5005258;28;20527;-63
2023/07/26 09:08:04;;;;;;;2.05;2.05;;;;;;;34.89;42.71;95730.56;5004664;28;20355;-65
2023/07/26 09:10:32;;;;;;;1.98;1.98;;;;;;;34.68;42.63;95713.31;5004554;28;20077;-65
2023/07/26 09:13:13;;;;;;;2.10;2.10;;;;;;;34.43;43.31;95726.53;5002660;28;20046;-63
2023/07/26 09:15:42;;;;;;;2.05;2.05;;;;;;;34.20;43.28;95647.09;5005138;28;20061;-63
2023/07/26 09:18:09;;;;;;;1.98;1.98;;;;;;;35.19;41.94;95710.63;5004847;28;20081;-65
2023/07/26 09:20:37;;;;;;;2.30;2.28;;;;;;;35.58;40.66;95718.97;5005269;28;20073;-64
2023/07/26 09:23:06;;;;;;;1.90;1.90;;;;;;;35.16;41.42;95720.41;5005519;28;20428;-65
2023/07/26 09:25:34;;;;;;;2.15;2.15;;;;;;;35.36;41.76;95690.81;5004517;28;20064;-65
2023/07/26 09:28:09;;;;;;;1.88;1.88;;;;;;;35.39;41.79;95712.72;5004979;28;20050;-64
2023/07/26 09:30:38;;;;;;;2.13;2.13;;;;;;;35.77;41.18;95702.13;5005587;28;20052;-64
2023/07/26 09:33:07;;;;;;;1.90;1.90;;;;;;;36.17;39.94;95714.75;5005442;28;20068;-62
2023/07/26 09:35:54;;;;;;;2.22;2.22;;;;;;;35.36;40.78;95707.28;5005403;28;20128;-65
2023/07/26 09:38:25;;;;;;;1.92;1.92;;;;;;;34.66;41.13;95663.44;5004888;28;20060;-65
2023/07/26 09:40:52;;;;;;;2.03;2.03;;;;;;;35.44;40.08;95703.16;5005028;28;20076;-65
2023/07/26 09:43:29;;;;;;;1.90;1.90;;;;;;;35.64;39.53;95673.44;5005021;28;20554;-62
2023/07/26 09:46:03;;;;;;;2.30;2.30;;;;;;;36.16;39.29;95693.03;5005259;28;20050;-66
2023/07/26 09:48:33;;;;;;;2.22;2.22;;;;;;;36.27;39.63;95692.69;5005162;28;20060;-63
2023/07/26 09:51:07;;;;;;;2.00;2.00;;;;;;;35.49;40.21;95681.28;5005360;28;20062;-66
2023/07/26 09:53:39;;;;;;;1.80;1.80;;;;;;;35.89;38.97;95683.16;5004856;28;20061;-65
2023/07/26 09:56:07;;;;;;;2.38;2.38;;;;;;;36.23;38.65;95668.44;5004969;28;20069;-62
2023/07/26 09:58:34;;;;;;;2.03;2.03;;;;;;;36.45;38.21;95633.09;5004664;28;20058;-63
2023/07/26 10:01:02;;;;;;;2.45;2.40;;;;;;;36.97;37.40;95683.50;5005280;28;20505;-62
2023/07/26 10:03:33;;;;;;;2.25;2.25;;;;;;;37.20;36.98;95678.44;5005240;28;20061;-65
2023/07/26 10:06:01;;;;;;;2.10;2.10;;;;;;;37.18;36.50;95608.94;5004513;28;20061;-65
2023/07/26 10:08:28;;;;;;;2.50;2.40;;;;;;;37.73;36.06;95661.75;5005010;28;20050;-66
2023/07/26 10:10:57;;;;;;;2.25;2.25;;;;;;;37.99;35.70;95658.31;5002933;28;20046;-62
2023/07/26 10:13:25;;;;;;;2.55;2.45;;;;;;;37.89;36.26;95629.25;5004582;28;20045;-66
2023/07/26 10:15:52;;;;;;;2.20;2.20;;;;;;;37.22;36.77;95647.66;5002955;28;20045;-62
2023/07/26 10:18:22;;;;;;;2.38;2.35;;;;;;;37.88;36.72;95638.53;5003335;28;20155;-65
2023/07/26 10:20:50;;;;;;;2.30;2.30;;;;;;;37.57;36.41;95637.13;5004368;28;20532;-63
2023/07/26 10:23:17;;;;;;;2.45;2.40;;;;;;;37.45;35.95;95610.03;5003973;28;20054;-66
2023/07/26 10:25:44;;;;;;;2.03;2.03;;;;;;;37.58;36.62;95609.75;5004442;28;20067;-66
2023/07/26 10:28:13;;;;;;;2.42;2.38;;;;;;;37.18;36.30;95473.16;4996108;28;20057;-63
2023/07/26 10:30:40;;;;;;;2.55;2.45;;;;;;;38.05;35.26;95606.78;5004335;28;20046;-65
2023/07/26 10:33:12;;;;;;;2.40;2.38;;;;;;;38.06;36.06;95639.38;5004981;28;20057;-66
2023/07/26 10:35:41;;;;;;;2.53;2.42;;;;;;;38.44;35.54;95619.66;5003675;28;20132;-63
2023/07/26 10:38:08;;;;;;;2.40;2.40;;;;;;;38.28;34.76;95592.97;5004105;28;20093;-63
2023/07/26 10:40:39;;;;;;;1.92;1.92;;;;;;;37.73;35.93;95604.69;5003667;28;20170;-63
2023/07/26 10:43:19;;;;;;;2.00;2.00;;;;;;;37.40;36.68;95619.66;5002470;28;20129;-65
2023/07/26 10:45:53;;;;;;;2.05;2.05;;;;;;;37.88;35.63;95603.81;5003629;28;20049;-62
2023/07/26 10:48:27;;;;;;;2.08;2.08;;;;;;;38.12;35.67;95600.22;5003647;28;20057;-66
2023/07/26 10:50:58;;;;;;;1.90;1.90;;;;;;;38.13;34.94;95583.63;5001798;28;20111;-64
2023/07/26 10:53:36;;;;;;;2.35;2.35;;;;;;;37.65;35.91;95548.25;5003756;28;20409;-63
2023/07/26 10:56:08;;;;;;;2.05;2.05;;;;;;;37.59;35.99;95588.19;5003683;28;20076;-66
2023/07/26 10:58:34;;;;;;;2.08;2.08;;;;;;;36.72;37.17;95546.84;4984260;28;20058;-65
2023/07/26 11:01:04;;;;;;;2.17;2.17;;;;;;;37.39;36.47;95569.00;4984282;28;20050;-66
2023/07/26 11:03:31;;;;;;;2.10;2.10;;;;;;;38.16;36.27;95580.31;4984998;28;20058;-62
2023/07/26 11:05:57;;;;;;;2.40;2.40;;;;;;;37.08;35.28;95400.03;4981939;28;20138;-63
2023/07/26 11:08:43;;;;;;;2.58;2.47;;;;;;;38.85;34.86;95544.41;4983294;28;20253;-63
2023/07/26 11:11:11;;;;;;;2.30;2.30;;;;;;;39.28;33.96;95552.38;4982175;28;20096;-62
2023/07/26 11:13:37;;;;;;;2.20;2.20;;;;;;;39.12;34.13;95522.09;4982871;28;20081;-63
2023/07/26 11:16:04;;;;;;;2.15;2.15;;;;;;;39.29;32.93;95547.38;4981811;28;20061;-66
2023/07/26 11:18:41;;;;;;;2.60;2.50;;;;;;;39.60;32.89;95553.56;4984098;28;20144;-66
2023/07/26 11:21:15;;;;;;;2.47;2.40;;;;;;;39.46;33.43;95532.13;4983441;28;20057;-63
2023/07/26 11:23:42;;;;;;;2.05;2.05;;;;;;;39.64;31.98;95484.28;4983506;28;20061;-64
2023/07/26 11:26:09;;;;;;;2.33;2.33;;;;;;;40.17;32.09;95534.31;4983565;28;20046;-66
2023/07/26 11:28:35;;;;;;;2.13;2.13;;;;;;;40.50;32.01;95540.56;4983703;28;20046;-65
2023/07/26 11:31:02;;;;;;;2.05;2.05;;;;;;;40.56;31.37;95526.53;4983352;28;20047;-63
2023/07/26 11:33:34;;;;;;;2.13;2.13;;;;;;;40.80;31.60;95528.44;4984100;28;20517;-63
2023/07/26 11:36:03;;;;;;;1.90;1.90;;;;;;;40.14;31.29;95514.44;4993763;28;20050;-67
2023/07/26 11:38:30;;;;;;;2.30;2.30;;;;;;;40.22;31.96;95509.28;4994252;28;20381;-64
2023/07/26 11:40:57;;;;;;;2.10;2.10;;;;;;;40.23;31.49;95493.41;4986970;28;20636;-65